createdAt,value
2022-11-28T00:01:41.482Z,86.50
2022-11-28T00:04:10.569Z,84.34
2022-11-28T00:06:41.274Z,84.12
2022-11-28T00:09:09.778Z,85.01
2022-11-28T00:11:40.732Z,84.24
2022-11-28T00:14:09.440Z,83.65
2022-11-28T00:16:38.085Z,83.82
2022-11-28T00:19:06.242Z,83.12
2022-11-28T00:21:34.871Z,81.52
2022-11-28T00:24:03.481Z,83.55
2022-11-28T00:26:34.860Z,85.71
2022-11-28T00:29:04.440Z,87.41
2022-11-28T00:31:36.017Z,84.81
2022-11-28T00:34:04.465Z,84.20
2022-11-28T00:36:32.400Z,85.15
2022-11-28T00:39:00.478Z,85.32
2022-11-28T00:41:31.312Z,85.37
2022-11-28T00:43:59.293Z,84.46
2022-11-28T00:46:27.942Z,82.78
2022-11-28T00:48:58.219Z,83.62
2022-11-28T00:51:29.212Z,85.21
2022-11-28T00:53:59.080Z,84.34
2022-11-28T00:56:33.703Z,85.36
2022-11-28T00:59:02.242Z,87.08
2022-11-28T01:01:32.821Z,86.47
2022-11-28T01:04:02.881Z,86.41
2022-11-28T01:06:34.333Z,86.99
2022-11-28T01:09:06.077Z,85.78
2022-11-28T01:11:34.567Z,87.06
2022-11-28T01:14:02.799Z,85.65
2022-11-28T01:16:31.211Z,84.69
2022-11-28T01:18:59.601Z,85.66
2022-11-28T01:21:28.091Z,85.94
2022-11-28T01:23:56.254Z,85.40
2022-11-28T01:26:27.831Z,84.99
2022-11-28T01:28:56.340Z,85.57
2022-11-28T01:31:26.705Z,86.47
2022-11-28T01:33:54.911Z,87.52
2022-11-28T01:36:23.420Z,84.78
2022-11-28T01:38:52.249Z,84.78
2022-11-28T01:41:23.241Z,84.57
2022-11-28T01:44:00.239Z,84.08
2022-11-28T01:46:29.667Z,82.88
2022-11-28T01:49:02.111Z,84.18
2022-11-28T01:51:30.631Z,84.21
2022-11-28T01:53:59.430Z,84.23
2022-11-28T01:56:29.589Z,82.66
2022-11-28T01:59:03.309Z,83.15
2022-11-28T02:01:31.940Z,84.18
2022-11-28T02:04:00.589Z,82.40
2022-11-28T02:06:28.740Z,82.55
2022-11-28T02:08:56.804Z,84.40
2022-11-28T02:11:54.311Z,82.72
2022-11-28T02:14:59.561Z,83.60
2022-11-28T02:17:38.343Z,84.50
2022-11-28T02:20:31.911Z,83.56
2022-11-28T02:23:09.319Z,82.04
2022-11-28T02:25:55.870Z,81.61
2022-11-28T02:28:32.991Z,80.84
2022-11-28T02:31:25.999Z,83.10
2022-11-28T02:33:57.962Z,84.57
2022-11-28T02:37:04.383Z,84.33
2022-11-28T02:39:39.270Z,86.67
2022-11-28T02:42:29.167Z,83.78
2022-11-28T02:45:36.039Z,86.03
2022-11-28T02:48:09.152Z,83.37
2022-11-28T02:51:00.649Z,84.33
2022-11-28T02:53:30.961Z,86.85
2022-11-28T02:55:59.950Z,85.63
2022-11-28T02:58:28.211Z,83.83
2022-11-28T03:00:56.690Z,83.63
2022-11-28T03:03:29.129Z,84.11
2022-11-28T03:06:30.840Z,83.53
2022-11-28T03:09:17.768Z,83.64
2022-11-28T03:11:58.193Z,85.30
2022-11-28T03:14:35.270Z,85.53
2022-11-28T03:17:20.281Z,90.02
2022-11-28T03:20:04.951Z,92.11
2022-11-28T03:22:49.190Z,91.34
2022-11-28T03:25:41.842Z,92.43
2022-11-28T03:28:19.323Z,92.14
2022-11-28T03:31:25.268Z,88.73
2022-11-28T03:33:58.492Z,88.71
2022-11-28T03:36:35.869Z,87.02
2022-11-28T03:39:12.812Z,87.93
2022-11-28T03:41:48.440Z,89.37
2022-11-28T03:44:23.829Z,91.32
2022-11-28T03:46:52.237Z,89.42
2022-11-28T03:49:39.919Z,88.69
2022-11-28T03:52:27.910Z,88.42
2022-11-28T03:55:12.370Z,87.19
2022-11-28T03:57:45.662Z,85.41
2022-11-28T04:00:14.731Z,84.60
2022-11-28T04:02:57.609Z,85.60
2022-11-28T04:05:40.910Z,87.20
2022-11-28T04:08:29.666Z,85.99
2022-11-28T04:11:21.349Z,87.03
2022-11-28T04:13:57.542Z,86.62
2022-11-28T04:16:35.627Z,85.23
2022-11-28T04:19:16.521Z,85.90
2022-11-28T04:21:50.303Z,85.21
2022-11-28T04:24:22.740Z,85.15
2022-11-28T04:27:03.310Z,84.36
2022-11-28T04:29:35.089Z,86.80
2022-11-28T04:32:04.639Z,85.84
2022-11-28T04:34:35.425Z,86.23
2022-11-28T04:37:09.635Z,86.98
2022-11-28T04:39:39.070Z,84.64
2022-11-28T04:42:14.039Z,86.51
2022-11-28T04:44:55.240Z,83.66
2022-11-28T04:47:24.222Z,86.93
2022-11-28T04:49:53.700Z,86.64
2022-11-28T04:52:29.730Z,86.54
2022-11-28T04:55:25.924Z,84.94
2022-11-28T04:58:00.652Z,84.08
2022-11-28T05:00:29.036Z,85.71
2022-11-28T05:02:57.294Z,84.93
2022-11-28T05:05:26.591Z,84.83
2022-11-28T05:07:54.915Z,84.47
2022-11-28T05:10:22.851Z,84.14
2022-11-28T05:12:50.823Z,83.90
2022-11-28T05:15:19.397Z,83.33
2022-11-28T05:17:47.290Z,85.98
2022-11-28T05:20:15.455Z,83.88
2022-11-28T05:22:43.791Z,84.31
2022-11-28T05:25:11.768Z,84.01
2022-11-28T05:27:39.924Z,84.58
2022-11-28T05:30:13.050Z,83.23
2022-11-28T05:32:41.425Z,85.89
2022-11-28T05:35:09.802Z,85.09
2022-11-28T05:37:38.071Z,88.47
2022-11-28T05:40:06.780Z,87.42
2022-11-28T05:42:36.040Z,88.38
2022-11-28T05:45:05.010Z,84.26
2022-11-28T05:47:33.745Z,83.65
2022-11-28T05:50:02.028Z,83.15
2022-11-28T05:52:32.428Z,84.21
2022-11-28T05:55:00.620Z,83.95
2022-11-28T05:57:30.200Z,84.56
2022-11-28T05:59:58.209Z,85.38
2022-11-28T06:02:26.338Z,85.49
2022-11-28T06:04:54.749Z,86.52
2022-11-28T06:07:22.888Z,86.00
2022-11-28T06:09:50.931Z,86.98
2022-11-28T06:12:19.241Z,85.22
2022-11-28T06:14:47.306Z,83.60
2022-11-28T06:17:15.336Z,84.29
2022-11-28T06:19:43.680Z,85.06
2022-11-28T06:22:11.848Z,83.82
2022-11-28T06:24:39.884Z,84.36
2022-11-28T06:27:08.306Z,84.54
2022-11-28T06:29:36.216Z,84.60
2022-11-28T06:32:04.277Z,84.28
2022-11-28T06:34:32.800Z,84.62
2022-11-28T06:37:01.121Z,85.18
2022-11-28T06:39:29.140Z,85.10
2022-11-28T06:41:57.442Z,86.42
2022-11-28T06:44:25.454Z,86.48
2022-11-28T06:46:54.954Z,85.84
2022-11-28T06:49:23.332Z,85.62
2022-11-28T06:51:51.252Z,83.41
2022-11-28T06:54:19.273Z,85.67
2022-11-28T06:56:47.588Z,85.96
2022-11-28T06:59:15.602Z,84.43
2022-11-28T07:01:43.678Z,85.41
2022-11-28T07:04:12.091Z,87.42
2022-11-28T07:06:40.171Z,86.39
2022-11-28T07:09:08.320Z,83.91
2022-11-28T07:11:36.769Z,84.50
2022-11-28T07:14:04.932Z,83.52
2022-11-28T07:16:34.033Z,82.88
2022-11-28T07:19:03.041Z,82.49
2022-11-28T07:21:31.228Z,84.32
2022-11-28T07:24:00.095Z,86.01
2022-11-28T07:26:28.514Z,86.66
2022-11-28T07:28:58.518Z,84.42
2022-11-28T07:31:29.757Z,84.13
2022-11-28T07:33:58.229Z,84.35
2022-11-28T07:36:28.176Z,85.58
2022-11-28T07:38:58.995Z,86.26
2022-11-28T07:41:28.338Z,85.09
2022-11-28T07:43:59.919Z,83.80
2022-11-28T07:46:29.566Z,85.92
2022-11-28T07:48:57.668Z,83.61
2022-11-28T07:51:28.741Z,85.28
2022-11-28T07:53:57.972Z,83.62
2022-11-28T07:56:39.551Z,84.25
2022-11-28T07:59:17.049Z,85.32
2022-11-28T08:01:45.121Z,83.07
2022-11-28T08:04:13.623Z,84.43
2022-11-28T08:06:42.638Z,83.11
2022-11-28T08:09:12.347Z,84.67
2022-11-28T08:11:41.617Z,84.34
2022-11-28T08:14:09.742Z,84.85
2022-11-28T08:16:41.482Z,86.07
2022-11-28T08:19:09.924Z,85.99
2022-11-28T08:21:38.127Z,83.75
2022-11-28T08:24:08.283Z,84.38
2022-11-28T08:26:37.654Z,84.53
2022-11-28T08:29:05.737Z,83.96
2022-11-28T08:31:36.582Z,84.10
2022-11-28T08:34:08.028Z,82.77
2022-11-28T08:36:36.138Z,81.99
2022-11-28T08:41:57.850Z,81.41
2022-11-28T08:44:27.578Z,79.97
2022-11-28T08:46:56.306Z,81.74
2022-11-28T08:49:24.416Z,81.78
2022-11-28T08:51:52.948Z,84.11
2022-11-28T08:54:21.329Z,82.90
2022-11-28T08:56:49.329Z,81.91
2022-11-28T08:59:17.697Z,79.42
2022-11-28T09:01:45.918Z,80.66
2022-11-28T09:04:14.176Z,79.63
2022-11-28T09:06:42.736Z,79.25
2022-11-28T09:09:10.920Z,79.39
2022-11-28T09:11:39.127Z,80.14
2022-11-28T09:14:07.907Z,78.57
2022-11-28T09:16:36.057Z,76.63
2022-11-28T09:19:04.396Z,77.65
2022-11-28T09:21:32.866Z,78.04
2022-11-28T09:24:01.070Z,77.93
2022-11-28T09:26:30.347Z,76.49
2022-11-28T09:28:58.699Z,78.51
2022-11-28T09:31:27.201Z,77.72
2022-11-28T09:33:55.479Z,77.20
2022-11-28T09:36:24.910Z,77.43
2022-11-28T09:38:53.056Z,76.32
2022-11-28T09:41:41.868Z,76.23
2022-11-28T09:44:19.372Z,75.55
2022-11-28T09:46:48.990Z,73.67
2022-11-28T09:49:59.028Z,73.66
2022-11-28T09:53:01.216Z,74.03
2022-11-28T09:55:37.085Z,75.50
2022-11-28T09:58:20.138Z,74.58
2022-11-28T10:00:56.167Z,74.70
2022-11-28T10:03:50.493Z,74.10
2022-11-28T10:06:28.511Z,73.39
2022-11-28T10:09:14.869Z,74.86
2022-11-28T10:12:10.647Z,74.43
2022-11-28T10:14:51.318Z,72.59
2022-11-28T10:17:33.977Z,72.77
2022-11-28T10:20:17.641Z,73.04
2022-11-28T10:23:28.947Z,73.80
2022-11-28T10:25:58.009Z,73.42
2022-11-28T10:28:35.670Z,74.32
2022-11-28T10:31:19.854Z,73.85
2022-11-28T10:33:53.087Z,72.84
2022-11-28T10:36:26.679Z,74.22
2022-11-28T10:38:54.753Z,74.29
2022-11-28T10:41:29.127Z,71.93
2022-11-28T10:44:03.010Z,70.93
2022-11-28T10:46:57.868Z,71.53
2022-11-28T10:50:04.719Z,70.70
2022-11-28T10:52:45.539Z,71.18
2022-11-28T10:55:22.747Z,69.80
2022-11-28T10:57:51.022Z,69.09
2022-11-28T11:00:20.043Z,70.16
2022-11-28T11:02:51.829Z,70.56
2022-11-28T11:05:22.638Z,69.11
2022-11-28T11:08:03.761Z,69.15
2022-11-28T11:10:32.173Z,69.60
2022-11-28T11:13:00.456Z,69.72
2022-11-28T11:15:30.168Z,72.73
2022-11-28T11:18:03.388Z,70.69
2022-11-28T11:20:40.141Z,68.62
2022-11-28T11:23:16.302Z,68.97
2022-11-28T11:25:55.034Z,68.96
2022-11-28T11:28:33.101Z,68.23
2022-11-28T11:31:05.843Z,70.98
2022-11-28T11:33:36.637Z,70.57
2022-11-28T11:36:06.366Z,69.06
2022-11-28T11:38:38.044Z,70.31
2022-11-28T11:41:29.909Z,70.13
2022-11-28T11:44:36.138Z,70.18
2022-11-28T11:47:09.352Z,69.42
2022-11-28T11:49:39.000Z,71.37
2022-11-28T11:52:13.417Z,69.81
2022-11-28T11:54:47.727Z,70.54
2022-11-28T11:57:33.839Z,69.44
2022-11-28T12:00:16.205Z,69.39
2022-11-28T12:02:48.195Z,71.26
2022-11-28T12:05:18.245Z,70.14
2022-11-28T12:07:51.100Z,69.79
2022-11-28T12:10:22.178Z,69.66
2022-11-28T12:12:50.917Z,68.12
2022-11-28T12:15:46.569Z,68.94
2022-11-28T12:19:00.620Z,68.65
2022-11-28T12:22:19.966Z,68.45
2022-11-28T12:25:06.916Z,69.32
2022-11-28T12:28:03.892Z,67.90
2022-11-28T12:30:33.815Z,68.28
2022-11-28T12:33:07.602Z,67.77
2022-11-28T12:36:03.008Z,67.61
2022-11-28T12:38:40.468Z,68.76
2022-11-28T12:42:03.134Z,69.63
2022-11-28T12:44:58.822Z,69.94
2022-11-28T12:47:47.706Z,68.30
2022-11-28T12:50:27.058Z,66.73
2022-11-28T12:53:21.990Z,67.15
2022-11-28T12:56:14.198Z,67.51
2022-11-28T12:58:57.659Z,68.30
2022-11-28T13:01:45.235Z,67.38
2022-11-28T13:04:42.398Z,68.11
2022-11-28T13:07:48.206Z,67.71
2022-11-28T13:10:34.893Z,68.11
2022-11-28T13:13:20.248Z,67.69
2022-11-28T13:16:16.305Z,67.15
2022-11-28T13:19:00.411Z,68.22
2022-11-28T13:21:52.778Z,67.72
2022-11-28T13:24:32.847Z,68.44
2022-11-28T13:27:34.219Z,67.60
2022-11-28T13:30:21.358Z,67.81
2022-11-28T13:33:00.479Z,67.65
2022-11-28T13:35:29.006Z,68.55
2022-11-28T13:42:01.190Z,67.73
2022-11-28T13:44:24.292Z,67.97
2022-11-28T13:46:52.359Z,67.68
2022-11-28T13:49:26.037Z,67.45
2022-11-28T13:52:18.948Z,67.89
2022-11-28T13:54:54.737Z,68.59
2022-11-28T13:57:30.359Z,68.07
2022-11-28T14:00:04.735Z,67.38
2022-11-28T14:02:45.969Z,67.79
2022-11-28T14:05:33.228Z,68.28
2022-11-28T14:08:01.711Z,68.78
2022-11-28T14:10:48.737Z,70.66
2022-11-28T14:13:44.238Z,68.93
2022-11-28T14:16:34.334Z,68.80
2022-11-28T14:19:40.132Z,68.12
2022-11-28T14:22:25.912Z,68.80
2022-11-28T14:25:28.126Z,69.85
2022-11-28T14:28:01.768Z,70.74
2022-11-28T14:30:37.811Z,70.55
2022-11-28T14:33:26.647Z,71.18
2022-11-28T14:35:54.632Z,70.38
2022-11-28T14:38:34.009Z,73.37
2022-11-28T14:41:11.889Z,72.26
2022-11-28T14:43:47.626Z,72.59
2022-11-28T14:46:15.652Z,72.33
2022-11-28T14:48:59.602Z,72.09
2022-11-28T14:52:00.027Z,71.89
2022-11-28T14:54:43.654Z,71.70
2022-11-28T14:57:23.175Z,71.30
2022-11-28T14:59:53.073Z,73.52
2022-11-28T15:02:27.506Z,74.39
2022-11-28T15:05:07.827Z,72.70
2022-11-28T15:07:49.736Z,74.01
2022-11-28T15:10:31.669Z,75.44
2022-11-28T15:13:20.917Z,74.28
2022-11-28T15:15:50.320Z,74.67
2022-11-28T15:18:20.358Z,74.95
2022-11-28T15:20:54.166Z,74.10
2022-11-28T15:23:30.558Z,73.94
2022-11-28T15:26:00.719Z,74.79
2022-11-28T15:28:32.649Z,74.86
2022-11-28T15:31:02.484Z,75.58
2022-11-28T15:33:32.518Z,75.17
2022-11-28T15:36:10.937Z,75.12
2022-11-28T15:38:42.929Z,75.44
2022-11-28T15:41:11.391Z,75.42
2022-11-28T15:43:43.926Z,77.27
2022-11-28T15:46:20.825Z,76.30
2022-11-28T15:48:52.887Z,77.54
2022-11-28T15:51:32.952Z,77.64
2022-11-28T15:54:05.300Z,77.54
2022-11-28T15:56:35.132Z,77.32
2022-11-28T15:59:03.809Z,77.46
2022-11-28T16:01:32.277Z,76.80
2022-11-28T16:04:06.976Z,77.26
2022-11-28T16:06:37.556Z,76.93
2022-11-28T16:09:18.339Z,77.50
2022-11-28T16:11:49.098Z,77.91
2022-11-28T16:14:36.856Z,78.13
2022-11-28T16:17:13.859Z,78.04
2022-11-28T16:19:44.609Z,77.80
2022-11-28T16:22:19.246Z,77.88
2022-11-28T16:24:50.527Z,77.66
2022-11-28T16:27:40.144Z,77.78
2022-11-28T16:30:32.907Z,77.91
2022-11-28T16:33:01.571Z,77.42
2022-11-28T16:35:39.158Z,77.73
2022-11-28T16:38:23.988Z,78.71
2022-11-28T16:40:59.755Z,78.27
2022-11-28T16:43:39.415Z,79.14
2022-11-28T16:46:15.954Z,79.10
2022-11-28T16:48:55.107Z,78.83
2022-11-28T16:51:30.238Z,80.37
2022-11-28T16:53:59.856Z,79.56
2022-11-28T16:56:31.537Z,78.52
2022-11-28T16:59:24.199Z,78.20
2022-11-28T17:01:53.790Z,79.31
2022-11-28T17:04:22.297Z,79.15
2022-11-28T17:06:51.660Z,81.42
2022-11-28T17:09:21.380Z,80.27
2022-11-28T17:12:15.486Z,79.13
2022-11-28T17:14:44.540Z,79.05
2022-11-28T17:17:14.217Z,78.84
2022-11-28T17:19:42.651Z,79.40
2022-11-28T17:22:14.346Z,79.00
2022-11-28T17:24:42.848Z,78.15
2022-11-28T17:27:15.806Z,80.09
2022-11-28T17:29:44.458Z,80.95
2022-11-28T17:32:14.196Z,80.59
2022-11-28T17:34:42.809Z,80.18
2022-11-28T17:37:10.998Z,79.39
2022-11-28T17:39:39.494Z,79.57
2022-11-28T17:42:10.179Z,78.98
2022-11-28T17:44:39.306Z,79.57
2022-11-28T17:47:07.678Z,80.64
2022-11-28T17:49:35.744Z,80.87
2022-11-28T17:52:04.016Z,79.87
2022-11-28T17:54:33.307Z,80.75
2022-11-28T17:57:01.459Z,80.83
2022-11-28T17:59:29.572Z,82.39
2022-11-28T18:01:58.436Z,82.17
2022-11-28T18:04:26.796Z,81.56
2022-11-28T18:06:55.085Z,80.16
2022-11-28T18:09:23.190Z,79.40
2022-11-28T18:11:51.960Z,80.69
2022-11-28T18:14:20.401Z,82.24
2022-11-28T18:16:48.710Z,80.36
2022-11-28T18:19:17.279Z,81.42
2022-11-28T18:21:45.289Z,81.67
2022-11-28T18:24:13.794Z,81.29
2022-11-28T18:26:42.765Z,80.20
2022-11-28T18:29:11.017Z,81.60
2022-11-28T18:31:39.180Z,81.52
2022-11-28T18:34:09.917Z,81.55
2022-11-28T18:36:39.327Z,82.84
2022-11-28T18:39:09.596Z,83.14
2022-11-28T18:41:37.872Z,82.59
2022-11-28T18:44:06.709Z,82.15
2022-11-28T18:46:35.649Z,82.51
2022-11-28T18:49:03.869Z,80.42
2022-11-28T18:51:34.607Z,80.66
2022-11-28T18:54:04.924Z,80.85
2022-11-28T18:56:33.797Z,81.01
2022-11-28T18:59:01.865Z,80.75
2022-11-28T19:01:32.653Z,81.05
2022-11-28T19:04:07.622Z,80.78
2022-11-28T19:06:38.037Z,81.23
2022-11-28T19:09:09.567Z,79.64
2022-11-28T19:11:38.767Z,81.44
2022-11-28T19:14:08.693Z,82.79
2022-11-28T19:16:37.859Z,82.94
2022-11-28T19:19:06.765Z,82.61
2022-11-28T19:21:35.897Z,81.56
2022-11-28T19:24:04.389Z,82.69
2022-11-28T19:26:34.310Z,83.27
2022-11-28T19:29:02.749Z,82.77
2022-11-28T19:31:32.835Z,82.62
2022-11-28T19:34:12.888Z,82.61
2022-11-28T19:36:46.890Z,84.10
2022-11-28T19:39:24.337Z,82.59
2022-11-28T19:41:53.676Z,86.67
2022-11-28T19:44:24.293Z,83.96
2022-11-28T19:46:53.123Z,84.55
2022-11-28T19:49:23.107Z,84.61
2022-11-28T19:51:51.707Z,81.93
2022-11-28T19:54:20.010Z,82.96
2022-11-28T19:56:49.414Z,82.82
2022-11-28T19:59:18.035Z,84.03
2022-11-28T20:01:49.175Z,83.17
2022-11-28T20:04:17.638Z,83.57
2022-11-28T20:06:45.716Z,83.32
2022-11-28T20:09:17.046Z,82.00
2022-11-28T20:11:47.857Z,81.96
2022-11-28T20:14:18.556Z,82.57
2022-11-28T20:16:47.470Z,82.26
2022-11-28T20:19:16.328Z,83.15
2022-11-28T20:21:44.885Z,83.83
2022-11-28T20:24:13.327Z,84.99
2022-11-28T20:26:44.001Z,83.18
2022-11-28T20:29:16.068Z,82.64
2022-11-28T20:31:47.852Z,82.95
2022-11-28T20:34:17.617Z,82.12
2022-11-28T20:36:46.577Z,82.43
2022-11-28T20:39:14.637Z,82.54
2022-11-28T20:41:42.619Z,83.95
2022-11-28T20:44:12.283Z,85.64
2022-11-28T20:46:40.239Z,85.54
2022-11-28T20:49:08.277Z,85.06
2022-11-28T20:51:36.649Z,84.00
2022-11-28T20:54:06.068Z,82.75
2022-11-28T20:57:05.208Z,82.80
2022-11-28T20:59:27.967Z,83.34
2022-11-28T21:01:56.015Z,85.70
2022-11-28T21:04:24.216Z,84.40
2022-11-28T21:06:52.645Z,84.51
2022-11-28T21:09:20.853Z,83.30
2022-11-28T21:11:58.484Z,83.07
2022-11-28T21:14:29.111Z,83.68
2022-11-28T21:16:58.503Z,83.11
2022-11-28T21:19:26.557Z,83.70
2022-11-28T21:21:54.897Z,82.89
2022-11-28T21:24:22.891Z,81.72
2022-11-28T21:26:54.056Z,82.60
2022-11-28T21:29:24.043Z,82.15
2022-11-28T21:31:53.009Z,81.38
2022-11-28T21:34:22.607Z,81.35
2022-11-28T21:36:51.124Z,81.58
2022-11-28T21:39:20.478Z,83.19
2022-11-28T21:41:48.669Z,82.97
2022-11-28T21:44:17.049Z,83.43
2022-11-28T21:46:45.428Z,83.40
2022-11-28T21:49:13.795Z,82.08
2022-11-28T21:51:42.183Z,82.98
2022-11-28T21:54:11.116Z,82.83
2022-11-28T21:56:39.540Z,82.90
2022-11-28T21:59:08.270Z,81.11
2022-11-28T22:01:36.484Z,81.15
2022-11-28T22:04:05.587Z,84.52
2022-11-28T22:06:34.020Z,84.69
2022-11-28T22:09:08.646Z,84.12
2022-11-28T22:11:39.151Z,85.76
2022-11-28T22:14:07.437Z,83.98
2022-11-28T22:16:36.177Z,82.66
2022-11-28T22:19:04.897Z,85.70
2022-11-28T22:24:21.941Z,82.79
2022-11-28T22:26:50.057Z,83.74
2022-11-28T22:29:18.777Z,84.63
2022-11-28T22:31:47.397Z,83.84
2022-11-28T22:34:15.498Z,83.94
2022-11-28T22:36:43.928Z,83.39
2022-11-28T22:39:12.596Z,82.25
2022-11-28T22:41:40.719Z,83.08
2022-11-28T22:44:10.503Z,81.78
2022-11-28T22:46:39.191Z,81.58
2022-11-28T22:49:09.765Z,80.52
2022-11-28T22:51:39.539Z,82.15
2022-11-28T22:54:12.048Z,83.24
2022-11-28T22:56:41.036Z,83.79
2022-11-28T22:59:14.480Z,81.80
2022-11-28T23:01:43.867Z,82.40
2022-11-28T23:04:12.198Z,83.30
2022-11-28T23:06:40.804Z,83.28
2022-11-28T23:09:09.995Z,84.57
2022-11-28T23:11:39.663Z,85.07
2022-11-28T23:14:10.248Z,84.48
2022-11-28T23:16:40.714Z,85.86
2022-11-28T23:19:12.787Z,85.45
2022-11-28T23:21:43.448Z,85.52
2022-11-28T23:24:17.226Z,84.88
2022-11-28T23:26:45.850Z,84.50
2022-11-28T23:29:14.788Z,86.66
2022-11-28T23:31:43.843Z,85.32
2022-11-28T23:34:12.567Z,85.55
2022-11-28T23:36:45.988Z,85.95
2022-11-28T23:39:22.405Z,84.99
2022-11-28T23:41:50.514Z,84.88
2022-11-28T23:44:19.857Z,85.89
2022-11-28T23:46:48.531Z,85.88
2022-11-28T23:49:17.048Z,85.18
2022-11-28T23:51:45.068Z,85.53
2022-11-28T23:54:13.199Z,85.22
2022-11-28T23:56:42.241Z,84.99
2022-11-28T23:59:11.808Z,87.03
